sensor_id;sensor_type;location;lat;lon;timestamp;pressure;altitude;pressure_sealevel;temperature;humidity
71239;BME280;61342;51.442;7.370;2023-05-24T08:56:52;100793.84;;;14.84;68.51
71239;BME280;61342;51.442;7.370;2023-05-24T08:58:16;100792.56;;;14.79;68.46
71239;BME280;61342;51.442;7.370;2023-05-24T08:59:41;100792.44;;;14.72;68.35
71239;BME280;61342;51.442;7.370;2023-05-24T09:01:35;100797.97;;;14.70;69.09
71239;BME280;61342;51.442;7.370;2023-05-24T09:03:03;100805.69;;;14.62;68.80
71239;BME280;61342;51.442;7.370;2023-05-24T09:04:40;100810.38;;;14.65;69.17
71239;BME280;61342;51.442;7.370;2023-05-24T09:11:49;100799.72;;;14.54;69.55
71239;BME280;61342;51.442;7.370;2023-05-24T12:09:40;100772.00;;;16.13;60.88
71239;BME280;61342;51.442;7.370;2023-05-24T12:11:05;100762.19;;;16.16;60.85
71239;BME280;61342;51.442;7.370;2023-05-24T15:40:40;100735.34;;;18.78;58.20
71239;BME280;61342;51.442;7.370;2023-05-24T16:29:07;100741.22;;;18.85;57.02
71239;BME280;61342;51.442;7.370;2023-05-24T17:07:37;100715.69;;;18.08;59.47
71239;BME280;61342;51.442;7.370;2023-05-24T17:10:46;100713.44;;;17.93;60.36
71239;BME280;61342;51.442;7.370;2023-05-24T17:18:23;100702.28;;;18.05;60.01
71239;BME280;61342;51.442;7.370;2023-05-24T17:27:19;100712.13;;;18.02;60.27
71239;BME280;61342;51.442;7.370;2023-05-24T17:36:55;100713.44;;;17.73;61.83
71239;BME280;61342;51.442;7.370;2023-05-24T18:10:48;100724.81;;;17.64;62.11
71239;BME280;61342;51.442;7.370;2023-05-24T18:12:32;100738.34;;;17.61;62.81
71239;BME280;61342;51.442;7.370;2023-05-24T18:41:08;100753.56;;;16.88;65.04
71239;BME280;61342;51.442;7.370;2023-05-24T18:47:16;100748.91;;;16.59;65.79
71239;BME280;61342;51.442;7.370;2023-05-24T18:58:46;100758.16;;;16.83;65.91
71239;BME280;61342;51.442;7.370;2023-05-24T19:00:15;100755.81;;;16.82;65.97
71239;BME280;61342;51.442;7.370;2023-05-24T19:05:41;100772.63;;;16.50;67.35
71239;BME280;61342;51.442;7.370;2023-05-24T19:10:46;100768.00;;;16.16;68.12
71239;BME280;61342;51.442;7.370;2023-05-24T19:12:15;100776.69;;;16.16;68.29
71239;BME280;61342;51.442;7.370;2023-05-24T19:13:40;100777.91;;;16.08;68.49
71239;BME280;61342;51.442;7.370;2023-05-24T19:15:04;100783.25;;;16.04;69.21
71239;BME280;61342;51.442;7.370;2023-05-24T19:16:26;100764.91;;;15.83;69.33
71239;BME280;61342;51.442;7.370;2023-05-24T19:19:41;100781.06;;;15.78;69.84
71239;BME280;61342;51.442;7.370;2023-05-24T19:21:07;100780.16;;;15.70;70.35
71239;BME280;61342;51.442;7.370;2023-05-24T19:24:49;100791.41;;;15.61;70.84
71239;BME280;61342;51.442;7.370;2023-05-24T19:26:43;100795.22;;;15.69;70.80
71239;BME280;61342;51.442;7.370;2023-05-24T19:31:31;100785.66;;;15.87;70.13
71239;BME280;61342;51.442;7.370;2023-05-24T19:34:02;100807.97;;;15.92;70.44
71239;BME280;61342;51.442;7.370;2023-05-24T19:35:14;100788.56;;;15.87;70.36
71239;BME280;61342;51.442;7.370;2023-05-24T19:36:24;100808.63;;;15.85;70.96
71239;BME280;61342;51.442;7.370;2023-05-24T19:37:28;100789.63;;;15.71;70.75
71239;BME280;61342;51.442;7.370;2023-05-24T19:38:37;100796.91;;;15.77;70.91
71239;BME280;61342;51.442;7.370;2023-05-24T19:39:43;100791.28;;;15.66;71.12
71239;BME280;61342;51.442;7.370;2023-05-24T19:41:05;100790.69;;;15.55;71.68
71239;BME280;61342;51.442;7.370;2023-05-24T19:42:19;100785.53;;;15.48;71.46
71239;BME280;61342;51.442;7.370;2023-05-24T19:43:32;100789.47;;;15.51;71.80
71239;BME280;61342;51.442;7.370;2023-05-24T19:44:39;100794.53;;;15.45;71.66
71239;BME280;61342;51.442;7.370;2023-05-24T19:45:42;100790.41;;;15.40;72.11
71239;BME280;61342;51.442;7.370;2023-05-24T19:46:46;100781.34;;;15.31;72.02
71239;BME280;61342;51.442;7.370;2023-05-24T19:51:07;100800.72;;;15.17;72.79
71239;BME280;61342;51.442;7.370;2023-05-24T19:52:21;100787.72;;;15.05;73.05
71239;BME280;61342;51.442;7.370;2023-05-24T19:53:43;100799.88;;;15.04;73.25
71239;BME280;61342;51.442;7.370;2023-05-24T19:55:07;100800.50;;;14.97;73.31
71239;BME280;61342;51.442;7.370;2023-05-24T19:56:15;100807.31;;;14.99;73.22
71239;BME280;61342;51.442;7.370;2023-05-24T19:57:43;100810.28;;;14.94;73.67
71239;BME280;61342;51.442;7.370;2023-05-24T20:00:15;100813.38;;;14.78;74.07
71239;BME280;61342;51.442;7.370;2023-05-24T20:01:25;100804.00;;;14.72;74.07
71239;BME280;61342;51.442;7.370;2023-05-24T20:02:38;100810.56;;;14.72;74.13
71239;BME280;61342;51.442;7.370;2023-05-24T20:04:08;100824.50;;;14.74;74.14
71239;BME280;61342;51.442;7.370;2023-05-24T20:06:47;100811.59;;;14.75;74.68
71239;BME280;61342;51.442;7.370;2023-05-24T20:08:16;100825.63;;;14.89;74.08
71239;BME280;61342;51.442;7.370;2023-05-24T20:09:51;100813.22;;;14.89;73.84
71239;BME280;61342;51.442;7.370;2023-05-24T20:11:08;100807.53;;;15.01;73.73
71239;BME280;61342;51.442;7.370;2023-05-24T20:13:45;100824.81;;;15.07;72.85
71239;BME280;61342;51.442;7.370;2023-05-24T20:14:49;100826.31;;;15.13;72.88
71239;BME280;61342;51.442;7.370;2023-05-24T20:15:57;100825.28;;;15.11;73.11
71239;BME280;61342;51.442;7.370;2023-05-24T20:18:47;100833.59;;;15.01;73.30
71239;BME280;61342;51.442;7.370;2023-05-24T20:21:44;100816.75;;;14.82;73.68
71239;BME280;61342;51.442;7.370;2023-05-24T20:23:23;100832.81;;;14.83;74.01
71239;BME280;61342;51.442;7.370;2023-05-24T20:24:42;100820.91;;;14.68;74.26
71239;BME280;61342;51.442;7.370;2023-05-24T20:27:48;100835.13;;;14.66;74.23
71239;BME280;61342;51.442;7.370;2023-05-24T20:29:14;100836.50;;;14.59;74.67
71239;BME280;61342;51.442;7.370;2023-05-24T20:31:47;100834.44;;;14.54;74.98
71239;BME280;61342;51.442;7.370;2023-05-24T20:32:57;100834.78;;;14.51;75.29
71239;BME280;61342;51.442;7.370;2023-05-24T20:34:17;100830.84;;;14.48;75.66
71239;BME280;61342;51.442;7.370;2023-05-24T20:35:24;100833.25;;;14.44;75.53
71239;BME280;61342;51.442;7.370;2023-05-24T20:36:41;100823.31;;;14.40;75.61
71239;BME280;61342;51.442;7.370;2023-05-24T20:37:55;100849.47;;;14.53;75.70
71239;BME280;61342;51.442;7.370;2023-05-24T20:39:12;100845.00;;;14.52;75.60
71239;BME280;61342;51.442;7.370;2023-05-24T20:40:20;100847.66;;;14.50;75.50
71239;BME280;61342;51.442;7.370;2023-05-24T20:41:33;100853.94;;;14.54;75.62
71239;BME280;61342;51.442;7.370;2023-05-24T20:42:41;100848.16;;;14.54;76.03
71239;BME280;61342;51.442;7.370;2023-05-24T20:44:29;100835.13;;;14.42;76.05
71239;BME280;61342;51.442;7.370;2023-05-24T20:45:41;100825.69;;;14.42;75.51
71239;BME280;61342;51.442;7.370;2023-05-24T20:46:44;100850.25;;;14.53;76.00
71239;BME280;61342;51.442;7.370;2023-05-24T20:49:38;100835.34;;;14.44;75.78
71239;BME280;61342;51.442;7.370;2023-05-24T20:50:51;100841.63;;;14.48;76.25
71239;BME280;61342;51.442;7.370;2023-05-24T20:53:08;100831.56;;;14.54;76.43
71239;BME280;61342;51.442;7.370;2023-05-24T20:54:25;100857.91;;;14.75;75.92
71239;BME280;61342;51.442;7.370;2023-05-24T20:55:41;100835.44;;;14.81;75.85
71239;BME280;61342;51.442;7.370;2023-05-24T20:56:52;100838.22;;;14.92;75.75
71239;BME280;61342;51.442;7.370;2023-05-24T20:58:02;100857.47;;;15.07;75.39
71239;BME280;61342;51.442;7.370;2023-05-24T20:59:21;100842.75;;;15.05;74.88
71239;BME280;61342;51.442;7.370;2023-05-24T21:00:27;100853.97;;;15.14;74.55
71239;BME280;61342;51.442;7.370;2023-05-24T21:01:36;100834.41;;;15.02;74.71
71239;BME280;61342;51.442;7.370;2023-05-24T21:02:59;100834.69;;;14.98;74.89
71239;BME280;61342;51.442;7.370;2023-05-24T21:05:48;100839.84;;;14.87;75.04
71239;BME280;61342;51.442;7.370;2023-05-24T21:07:06;100838.13;;;14.79;74.83
71239;BME280;61342;51.442;7.370;2023-05-24T21:10:01;100845.09;;;14.65;75.40
71239;BME280;61342;51.442;7.370;2023-05-24T21:11:14;100844.78;;;14.50;75.68
71239;BME280;61342;51.442;7.370;2023-05-24T21:12:18;100848.50;;;14.45;75.60
71239;BME280;61342;51.442;7.370;2023-05-24T21:13:47;100857.72;;;14.43;76.32
71239;BME280;61342;51.442;7.370;2023-05-24T21:14:49;100849.47;;;14.29;76.76
71239;BME280;61342;51.442;7.370;2023-05-24T21:15:59;100848.97;;;14.25;76.66
71239;BME280;61342;51.442;7.370;2023-05-24T21:17:05;100850.06;;;14.22;77.03
71239;BME280;61342;51.442;7.370;2023-05-24T21:18:16;100868.72;;;14.21;77.36
71239;BME280;61342;51.442;7.370;2023-05-24T21:19:17;100856.75;;;14.06;77.75
71239;BME280;61342;51.442;7.370;2023-05-24T21:20:36;100853.94;;;14.01;77.94
71239;BME280;61342;51.442;7.370;2023-05-24T21:21:37;100855.53;;;13.96;78.12
71239;BME280;61342;51.442;7.370;2023-05-24T21:22:45;100862.63;;;13.95;78.32
71239;BME280;61342;51.442;7.370;2023-05-24T21:23:46;100863.22;;;13.88;78.48
71239;BME280;61342;51.442;7.370;2023-05-24T21:25:32;100859.41;;;13.75;78.43
71239;BME280;61342;51.442;7.370;2023-05-24T21:26:41;100855.50;;;13.67;78.64
71239;BME280;61342;51.442;7.370;2023-05-24T21:28:05;100853.44;;;13.62;78.86
71239;BME280;61342;51.442;7.370;2023-05-24T21:29:09;100861.34;;;13.62;78.83
71239;BME280;61342;51.442;7.370;2023-05-24T21:30:25;100872.91;;;13.62;79.13
71239;BME280;61342;51.442;7.370;2023-05-24T21:31:26;100861.13;;;13.54;79.20
71239;BME280;61342;51.442;7.370;2023-05-24T21:32:37;100854.88;;;13.45;79.72
71239;BME280;61342;51.442;7.370;2023-05-24T21:33:46;100851.25;;;13.39;79.84
71239;BME280;61342;51.442;7.370;2023-05-24T21:35:11;100859.13;;;13.38;80.08
71239;BME280;61342;51.442;7.370;2023-05-24T21:36:14;100843.16;;;13.32;80.12
71239;BME280;61342;51.442;7.370;2023-05-24T21:37:17;100874.59;;;13.41;80.29
71239;BME280;61342;51.442;7.370;2023-05-24T21:38:18;100862.06;;;13.33;80.52
71239;BME280;61342;51.442;7.370;2023-05-24T21:39:28;100879.38;;;13.33;80.65
71239;BME280;61342;51.442;7.370;2023-05-24T21:40:28;100858.94;;;13.25;80.63
71239;BME280;61342;51.442;7.370;2023-05-24T21:41:29;100876.22;;;13.31;81.19
71239;BME280;61342;51.442;7.370;2023-05-24T21:42:42;100871.03;;;13.24;81.22
71239;BME280;61342;51.442;7.370;2023-05-24T21:43:51;100867.56;;;13.31;81.31
71239;BME280;61342;51.442;7.370;2023-05-24T21:44:52;100875.66;;;13.43;81.25
71239;BME280;61342;51.442;7.370;2023-05-24T21:46:01;100868.03;;;13.46;81.15
71239;BME280;61342;51.442;7.370;2023-05-24T21:47:09;100874.25;;;13.55;80.77
71239;BME280;61342;51.442;7.370;2023-05-24T21:48:12;100870.00;;;13.62;80.29
71239;BME280;61342;51.442;7.370;2023-05-24T21:49:13;100876.50;;;13.68;80.31
71239;BME280;61342;51.442;7.370;2023-05-24T21:50:17;100863.16;;;13.65;79.96
71239;BME280;61342;51.442;7.370;2023-05-24T21:51:21;100864.97;;;13.68;79.77
71239;BME280;61342;51.442;7.370;2023-05-24T21:52:31;100888.56;;;13.72;79.86
71239;BME280;61342;51.442;7.370;2023-05-24T21:53:37;100871.56;;;13.63;79.92
71239;BME280;61342;51.442;7.370;2023-05-24T21:54:43;100878.94;;;13.58;80.10
71239;BME280;61342;51.442;7.370;2023-05-24T21:55:47;100880.03;;;13.55;79.86
71239;BME280;61342;51.442;7.370;2023-05-24T21:56:49;100883.47;;;13.54;79.78
71239;BME280;61342;51.442;7.370;2023-05-24T21:57:58;100889.22;;;13.54;80.29
71239;BME280;61342;51.442;7.370;2023-05-24T21:59:05;100892.44;;;13.45;80.54
71239;BME280;61342;51.442;7.370;2023-05-24T22:00:25;100892.72;;;13.41;80.57
71239;BME280;61342;51.442;7.370;2023-05-24T22:01:36;100883.31;;;13.30;81.06
71239;BME280;61342;51.442;7.370;2023-05-24T22:02:39;100880.72;;;13.26;80.99
71239;BME280;61342;51.442;7.370;2023-05-24T22:03:50;100885.47;;;13.24;81.08
71239;BME280;61342;51.442;7.370;2023-05-24T22:05:09;100888.13;;;13.17;81.27
71239;BME280;61342;51.442;7.370;2023-05-24T22:06:13;100885.28;;;13.11;81.54
71239;BME280;61342;51.442;7.370;2023-05-24T22:07:17;100881.09;;;13.07;81.57
71239;BME280;61342;51.442;7.370;2023-05-24T22:08:23;100885.03;;;13.04;81.95
71239;BME280;61342;51.442;7.370;2023-05-24T22:09:39;100890.06;;;12.98;82.32
71239;BME280;61342;51.442;7.370;2023-05-24T22:10:51;100903.97;;;12.99;82.26
71239;BME280;61342;51.442;7.370;2023-05-24T22:12:02;100895.59;;;12.90;82.52
71239;BME280;61342;51.442;7.370;2023-05-24T22:13:03;100886.69;;;12.83;82.68
71239;BME280;61342;51.442;7.370;2023-05-24T22:14:07;100890.06;;;12.81;82.81
71239;BME280;61342;51.442;7.370;2023-05-24T22:15:12;100905.03;;;12.85;82.96
71239;BME280;61342;51.442;7.370;2023-05-24T22:16:19;100897.47;;;12.71;83.20
71239;BME280;61342;51.442;7.370;2023-05-24T22:17:27;100890.91;;;12.65;83.50
71239;BME280;61342;51.442;7.370;2023-05-24T22:18:49;100902.72;;;12.67;83.52
71239;BME280;61342;51.442;7.370;2023-05-24T22:20:00;100915.56;;;12.66;83.75
71239;BME280;61342;51.442;7.370;2023-05-24T22:21:05;100913.75;;;12.64;83.88
71239;BME280;61342;51.442;7.370;2023-05-24T22:22:17;100903.81;;;12.54;84.29
71239;BME280;61342;51.442;7.370;2023-05-24T22:23:21;100892.81;;;12.47;84.18
71239;BME280;61342;51.442;7.370;2023-05-24T22:24:26;100912.72;;;12.56;84.36
71239;BME280;61342;51.442;7.370;2023-05-24T22:25:29;100908.81;;;12.48;84.48
71239;BME280;61342;51.442;7.370;2023-05-24T22:26:29;100910.91;;;12.47;84.52
71239;BME280;61342;51.442;7.370;2023-05-24T22:27:36;100924.00;;;12.48;84.74
71239;BME280;61342;51.442;7.370;2023-05-24T22:28:53;100911.72;;;12.42;84.95
71239;BME280;61342;51.442;7.370;2023-05-24T22:30:22;100912.50;;;12.37;84.84
71239;BME280;61342;51.442;7.370;2023-05-24T22:31:43;100911.97;;;12.33;85.02
71239;BME280;61342;51.442;7.370;2023-05-24T22:32:51;100914.06;;;12.33;85.26
71239;BME280;61342;51.442;7.370;2023-05-24T22:33:58;100911.47;;;12.24;85.17
71239;BME280;61342;51.442;7.370;2023-05-24T22:35:08;100912.78;;;12.23;85.33
71239;BME280;61342;51.442;7.370;2023-05-24T22:36:12;100897.56;;;12.17;85.42
71239;BME280;61342;51.442;7.370;2023-05-24T22:37:22;100903.59;;;12.19;85.75
71239;BME280;61342;51.442;7.370;2023-05-24T22:38:33;100900.44;;;12.17;85.88
71239;BME280;61342;51.442;7.370;2023-05-24T22:39:47;100904.41;;;12.14;85.83
71239;BME280;61342;51.442;7.370;2023-05-24T22:42:11;100909.66;;;12.05;86.36
71239;BME280;61342;51.442;7.370;2023-05-24T22:43:15;100896.78;;;12.00;86.23
71239;BME280;61342;51.442;7.370;2023-05-24T22:44:18;100914.63;;;12.09;86.38
71239;BME280;61342;51.442;7.370;2023-05-24T22:45:34;100906.25;;;12.01;86.68
71239;BME280;61342;51.442;7.370;2023-05-24T22:46:41;100917.75;;;12.06;86.83
71239;BME280;61342;51.442;7.370;2023-05-24T22:47:55;100894.72;;;12.01;86.71
71239;BME280;61342;51.442;7.370;2023-05-24T22:49:06;100912.25;;;12.19;86.74
71239;BME280;61342;51.442;7.370;2023-05-24T22:50:12;100895.47;;;12.23;86.55
71239;BME280;61342;51.442;7.370;2023-05-24T22:51:15;100905.16;;;12.36;86.28
71239;BME280;61342;51.442;7.370;2023-05-24T22:54:00;100908.78;;;12.59;85.56
71239;BME280;61342;51.442;7.370;2023-05-24T22:55:06;100910.06;;;12.63;85.25
71239;BME280;61342;51.442;7.370;2023-05-24T22:56:09;100917.16;;;12.62;84.90
71239;BME280;61342;51.442;7.370;2023-05-24T22:57:15;100916.63;;;12.64;85.28
71239;BME280;61342;51.442;7.370;2023-05-24T22:58:21;100894.91;;;12.52;84.98
71239;BME280;61342;51.442;7.370;2023-05-24T22:59:25;100912.19;;;12.63;84.81
71239;BME280;61342;51.442;7.370;2023-05-24T23:00:29;100907.47;;;12.60;85.01
71239;BME280;61342;51.442;7.370;2023-05-24T23:01:30;100888.88;;;12.44;84.85
71239;BME280;61342;51.442;7.370;2023-05-24T23:02:31;100909.56;;;12.54;84.97
71239;BME280;61342;51.442;7.370;2023-05-24T23:03:33;100910.63;;;12.51;85.19
71239;BME280;61342;51.442;7.370;2023-05-24T23:04:41;100895.72;;;12.41;85.34
71239;BME280;61342;51.442;7.370;2023-05-24T23:05:45;100903.03;;;12.37;85.46
71239;BME280;61342;51.442;7.370;2023-05-24T23:06:55;100900.16;;;12.37;85.50
71239;BME280;61342;51.442;7.370;2023-05-24T23:08:01;100911.44;;;12.35;85.48
71239;BME280;61342;51.442;7.370;2023-05-24T23:09:05;100889.72;;;12.23;85.52
71239;BME280;61342;51.442;7.370;2023-05-24T23:10:12;100901.25;;;12.23;85.87
71239;BME280;61342;51.442;7.370;2023-05-24T23:11:15;100908.31;;;12.16;86.01
71239;BME280;61342;51.442;7.370;2023-05-24T23:12:16;100910.16;;;12.14;85.76
71239;BME280;61342;51.442;7.370;2023-05-24T23:13:20;100907.81;;;12.07;86.09
71239;BME280;61342;51.442;7.370;2023-05-24T23:14:23;100923.78;;;12.13;86.39
71239;BME280;61342;51.442;7.370;2023-05-24T23:15:29;100899.16;;;11.96;86.29
71239;BME280;61342;51.442;7.370;2023-05-24T23:16:39;100913.56;;;11.96;86.54
71239;BME280;61342;51.442;7.370;2023-05-24T23:17:44;100902.56;;;11.95;86.79
71239;BME280;61342;51.442;7.370;2023-05-24T23:19:00;100921.41;;;11.96;86.75
71239;BME280;61342;51.442;7.370;2023-05-24T23:20:04;100917.50;;;11.93;86.75
71239;BME280;61342;51.442;7.370;2023-05-24T23:21:05;100929.53;;;11.92;86.91
71239;BME280;61342;51.442;7.370;2023-05-24T23:22:05;100911.72;;;11.82;87.15
71239;BME280;61342;51.442;7.370;2023-05-24T23:23:06;100924.31;;;11.85;87.26
71239;BME280;61342;51.442;7.370;2023-05-24T23:24:07;100907.28;;;11.70;87.55
71239;BME280;61342;51.442;7.370;2023-05-24T23:25:21;100903.59;;;11.64;87.57
71239;BME280;61342;51.442;7.370;2023-05-24T23:26:33;100906.47;;;11.64;87.63
71239;BME280;61342;51.442;7.370;2023-05-24T23:27:43;100913.56;;;11.63;87.82
71239;BME280;61342;51.442;7.370;2023-05-24T23:28:47;100927.16;;;11.68;87.84
71239;BME280;61342;51.442;7.370;2023-05-24T23:29:55;100901.75;;;11.51;88.05
71239;BME280;61342;51.442;7.370;2023-05-24T23:30:56;100923.50;;;11.62;88.08
71239;BME280;61342;51.442;7.370;2023-05-24T23:31:56;100910.63;;;11.52;88.16
71239;BME280;61342;51.442;7.370;2023-05-24T23:33:07;100898.84;;;11.45;88.55
71239;BME280;61342;51.442;7.370;2023-05-24T23:34:21;100917.94;;;11.48;88.59
71239;BME280;61342;51.442;7.370;2023-05-24T23:35:24;100919.81;;;11.51;88.79
71239;BME280;61342;51.442;7.370;2023-05-24T23:36:33;100914.00;;;11.46;88.70
71239;BME280;61342;51.442;7.370;2023-05-24T23:37:54;100919.22;;;11.42;89.20
71239;BME280;61342;51.442;7.370;2023-05-24T23:38:55;100912.41;;;11.39;89.13
71239;BME280;61342;51.442;7.370;2023-05-24T23:39:59;100911.09;;;11.35;89.08
71239;BME280;61342;51.442;7.370;2023-05-24T23:41:05;100895.66;;;11.27;89.41
71239;BME280;61342;51.442;7.370;2023-05-24T23:42:06;100910.81;;;11.33;89.29
71239;BME280;61342;51.442;7.370;2023-05-24T23:43:14;100901.66;;;11.23;89.57
71239;BME280;61342;51.442;7.370;2023-05-24T23:44:18;100907.94;;;11.22;89.66
71239;BME280;61342;51.442;7.370;2023-05-24T23:45:25;100936.72;;;11.33;89.46
71239;BME280;61342;51.442;7.370;2023-05-24T23:46:32;100923.38;;;11.24;89.48
71239;BME280;61342;51.442;7.370;2023-05-24T23:47:35;100912.63;;;11.19;89.83
71239;BME280;61342;51.442;7.370;2023-05-24T23:48:39;100935.41;;;11.28;89.77
71239;BME280;61342;51.442;7.370;2023-05-24T23:49:42;100921.78;;;11.18;89.86
71239;BME280;61342;51.442;7.370;2023-05-24T23:50:53;100923.31;;;11.19;89.90
71239;BME280;61342;51.442;7.370;2023-05-24T23:53:07;100924.38;;;11.16;89.98
71239;BME280;61342;51.442;7.370;2023-05-24T23:54:10;100928.81;;;11.17;90.51
71239;BME280;61342;51.442;7.370;2023-05-24T23:55:13;100933.53;;;11.20;90.56
71239;BME280;61342;51.442;7.370;2023-05-24T23:56:14;100921.75;;;11.12;90.29
71239;BME280;61342;51.442;7.370;2023-05-24T23:57:18;100937.47;;;11.17;90.74
71239;BME280;61342;51.442;7.370;2023-05-24T23:58:29;100924.59;;;11.07;90.75
71239;BME280;61342;51.442;7.370;2023-05-24T23:59:35;100929.84;;;11.08;90.78
